AirNav   Air Wisconsin Up To $57,000 Bonus
 
 934 users online  

KUWL New Castle Henry County Airport / Marlatt Field
New Castle, Indiana, USA

GOING TO NEW CASTLE?


FAA INFORMATION EFFECTIVE 20 MAY 2021

Location

FAA Identifier: UWL
Lat/Long: 39-52-36.2000N 085-19-31.0000W
39-52.603333N 085-19.516667W
39.8767222,-85.3252778
(estimated)
Elevation: 1090.2 ft. / 332.3 m (surveyed)
Variation: 06W (2020)
From city: 4 miles SE of NEW CASTLE, IN
Time zone: UTC -4 (UTC -5 during Standard Time)
Zip code: 47362

Airport Operations

Airport use: Open to the public
Activation date: 09/1971
Control tower: no
ARTCC: INDIANAPOLIS CENTER
FSS: TERRE HAUTE FLIGHT SERVICE STATION
NOTAMs facility: HUF (NOTAM-D service available)
Attendance: 0800-1800
FOR FUEL WHEN ARPT UNATNDD PHONE 765-332-2969.
Wind indicator: lighted
Segmented circle: no
Lights: MIRL RY 10/28 PRESET ON LOW INTST; TO INCR INTST & ACTVT PAPI RYS 10 & 28; REIL RYS 10 & 28 - CTAF.
Beacon: white-green (lighted land airport)
Operates sunset to sunrise.

Airport Communications

CTAF/UNICOM: 123.05
INDIANAPOLIS APPROACH: 135.45
INDIANAPOLIS DEPARTURE: 135.45
WX AWOS-3 at CEV (14 nm SE): 118.325 (765-827-6649)
WX AWOS-3 at AID (19 nm NW): 128.55 (765-442-1245)

Nearby radio navigation aids

VOR radial/distance  VOR name  Freq  Var
MIEr175/21.9MUNCIE VOR/DME114.4003W
SHBr057/27.3SHELBYVILLE VOR/DME112.0001E

 
NDB name  Hdg/Dist  Freq  Var  ID
NEW CASTLEat field38506WUWL ..- .-- .-..
PNTHR308/10.822704WSQ ... --.-
VIDEO147/14.439403WAI .- ..
BATESVILLE359/32.025405WHLB .... .-.. -...
METROPOLITAN099/33.633803WUMP ..- -- .--.

Airport Services

Fuel available: 100LL JET-A
Parking: hangars and tiedowns
Airframe service: MINOR
Powerplant service: MINOR
Bottled oxygen: NONE

Runway Information

Runway 10/28

Dimensions: 4201 x 75 ft. / 1280 x 23 m
Surface: asphalt, in good condition
Runway edge lights: medium intensity
RUNWAY 10  RUNWAY 28
Latitude: 39-52.606323N39-52.601465N
Longitude: 085-19.966247W085-19.068143W
Elevation: 1080.1 ft.1090.1 ft.
Traffic pattern: leftleft
Runway heading: 096 magnetic, 090 true276 magnetic, 270 true
Markings: nonprecision, in good conditionnonprecision, in good condition
Visual slope indicator: 2-light PAPI on left (3.00 degrees glide path)2-light PAPI on left (3.00 degrees glide path)
Runway end identifier lights: yesyes
Touchdown point: yes, no lightsyes, no lights
Obstructions: none10 ft. crops, 210 ft. from runway, 1:1 slope to clear

Airport Ownership and Management from official FAA records

Ownership: Publicly-owned
Owner: NEW CASTLE/HENRY COUNTY
2912 E. CO. RD. 400 S.
NEW CASTLE, IN 47362
Phone 765-529-7903
AIRPORT OWNED BY MR. MARLATT, RUNWAY OWNED BY CITY OF NEW CASTLE, HENRY CO.
Manager: JOHN MARLATT
2912 E. CO. RD. 400 S.
NEW CASTLE, IN 47362
Phone 765-529-7903
OR 765-529-7909.

Airport Operational Statistics

Aircraft based on the field: 14
Single engine airplanes: 14
    
Aircraft operations: avg 43/week *
80% local general aviation
16% transient general aviation
4% air taxi
* for 12-month period ending 31 December 2018

Additional Remarks

FOR CD CTC INDIANAPOLIS APCH AT 317-227-5743.

Instrument Procedures

NOTE: All procedures below are presented as PDF files. If you need a reader for these files, you should download the free Adobe Reader.

NOT FOR NAVIGATION. Please procure official charts for flight.
FAA instrument procedures published for use from 20 May 2021 at 0901Z to 17 June 2021 at 0900z.

 
IAPs - Instrument Approach Procedures
RNAV (GPS) RWY 10   download (214KB)
RNAV (GPS) RWY 28   download (211KB)
NDB RWY 10   download (179KB)
NOTE: Special Take-Off Minimums/Departure Procedures apply   download (348KB)

Other nearby airports with instrument procedures:

KCEV - Mettel Field Airport (14 nm SE)
KAID - Anderson Municipal Airport-Darlington Field (19 nm NW)
KMIE - Delaware County Regional Airport (22 nm N)
KRID - Richmond Municipal Airport (23 nm E)
I22 - Randolph County Airport (25 nm NE)
 
Loc | Ops | Rwys | IFR | FBO | Links
Com | Nav | Svcs | Stats | Notes
Area around KUWL (New Castle Henry County Airport / Marlatt Field)
 
Road maps at: MapQuest Bing Google
 
Aerial photo
WARNING: Photo may not be current or correct
Aerial photo of KUWL (New Castle Henry County Airport / Marlatt Field)
Photo by Phil Brooks
Photo taken 30-Apr-2018
looking west.

Do you have a better or more recent aerial photo of New Castle Henry County Airport / Marlatt Field that you would like to share? If so, please send us your photo.

 
Sectional chart

 
Airport distance calculator
Flying to New Castle Henry County Airport / Marlatt Field? Find the distance to fly.

From to KUWL

Sunrise and sunset
Times for 12-Jun-2021
 Local
(UTC-4)
 Zulu
(UTC)
Morning civil twilight05:4109:41
Sunrise06:1310:13
Sunset21:0901:09
Evening civil twilight21:4201:42

Current date and time
Zulu (UTC)  12-Jun-2021 13:27:51
Local (UTC-4)  12-Jun-2021 09:27:51
 
METAR
KAID 
20nm NW 
121315Z AUTO 00000KT 10SM CLR 26/19 A2989 RMK AO2 T02600193
KMIE 
22nm N 
121253Z 28003KT 9SM CLR 27/21 A2988 RMK AO2 SLP104 T02670211
KRID 
23nm E 
121235Z AUTO 00000KT 5SM BR CLR 22/22 A2989 RMK AO2
KMQJ 
26nm W 
121315Z AUTO 00000KT 10SM CLR 27/25 A2988 RMK AO1
KGEZ 
28nm SW 
121253Z AUTO 00000KT 10SM CLR 27/22 A2986 RMK AO2 SLP103 T02670222
KHLB 
32nm S 
121315Z AUTO 00000KT 10SM CLR 25/25 A2989 RMK A01
KOXD 
34nm SE 
121259Z AUTO 00000KT 10SM CLR 24/24 A2988 RMK AO2
KPLD 
38nm NE 
121235Z AUTO 00000KT 7SM CLR 23/19 A2988 RMK AO2
KHFY 
38nm SW 
121315Z AUTO 00000KT 10SM CLR 26/21 A2988 RMK AO2 T02550210
TAF
KIND 
45nm W 
121120Z 1212/1318 30003KT P6SM FEW250 FM121900 31003KT P6SM VCSH SCT050 FM130000 30005KT P6SM FEW200
NOTAMs
Click for the latest NOTAMs
NOTAMs are issued by the DoD/FAA and will open in a separate window not controlled by AirNav.

 

 
 

FBO, Fuel Providers, and Aircraft Ground Support

  
 Business Name 
 
 Contact 
 
 Services / Description 
 
Fuel Prices
 
Comments
  
Sky Castle Aviation 765-529-7903
no information available

If you are affiliated with Sky Castle Aviation and would like to show here your services, contact info, web link, logo, and more, click here
100LL Jet A
FS $4.90 $3.40 
 Updated 02-Jun-2021
 
   1 read write
FS=Full service
Update Fuel Prices
 

Would you like to see your business listed on this page?

 If your business provides an interesting product or service to pilots, flight crews, aircraft, or users of the New Castle Henry County Airport / Marlatt Field, you should consider listing it here.  To start the listing process, click on the button below
 
Add a business
 

Other Pages about New Castle Henry County Airport / Marlatt Field

Update a link
 
Copyright © AirNav, LLC. All rights reserved. Privacy Policy  Contact